sensor_id;sensor_type;location;lat;lon;timestamp;pressure;altitude;pressure_sealevel;temperature;humidity
57250;BME280;43102;52.014;-0.680;2023-05-07T00:00:00;100467;;;14.14;82.54
57250;BME280;43102;52.014;-0.680;2023-05-07T00:01:00;100467;;;14.14;82.54
57250;BME280;43102;52.014;-0.680;2023-05-07T00:02:00;100467;;;14.14;82.54
57250;BME280;43102;52.014;-0.680;2023-05-07T00:03:00;100467;;;14.14;82.54
57250;BME280;43102;52.014;-0.680;2023-05-07T00:04:00;100467;;;14.14;82.54
57250;BME280;43102;52.014;-0.680;2023-05-07T00:05:00;100468;;;14.17;82.32
57250;BME280;43102;52.014;-0.680;2023-05-07T00:06:00;100468;;;14.17;82.32
57250;BME280;43102;52.014;-0.680;2023-05-07T00:07:00;100468;;;14.17;82.32
57250;BME280;43102;52.014;-0.680;2023-05-07T00:08:00;100468;;;14.17;82.32
57250;BME280;43102;52.014;-0.680;2023-05-07T00:09:00;100468;;;14.17;82.32
57250;BME280;43102;52.014;-0.680;2023-05-07T00:10:00;100465;;;14.17;82.35
57250;BME280;43102;52.014;-0.680;2023-05-07T00:11:00;100465;;;14.17;82.35
57250;BME280;43102;52.014;-0.680;2023-05-07T00:12:00;100465;;;14.17;82.35
57250;BME280;43102;52.014;-0.680;2023-05-07T00:13:00;100465;;;14.17;82.35
57250;BME280;43102;52.014;-0.680;2023-05-07T00:14:00;100465;;;14.17;82.35
57250;BME280;43102;52.014;-0.680;2023-05-07T00:15:01;100478;;;14.19;82.05
57250;BME280;43102;52.014;-0.680;2023-05-07T00:16:00;100478;;;14.19;82.05
57250;BME280;43102;52.014;-0.680;2023-05-07T00:17:00;100478;;;14.19;82.05
57250;BME280;43102;52.014;-0.680;2023-05-07T00:18:00;100478;;;14.19;82.05
57250;BME280;43102;52.014;-0.680;2023-05-07T00:19:00;100478;;;14.19;82.05
57250;BME280;43102;52.014;-0.680;2023-05-07T00:20:00;100474;;;14.22;82.16
57250;BME280;43102;52.014;-0.680;2023-05-07T00:21:00;100474;;;14.22;82.16
57250;BME280;43102;52.014;-0.680;2023-05-07T00:22:00;100474;;;14.22;82.16
57250;BME280;43102;52.014;-0.680;2023-05-07T00:23:00;100474;;;14.22;82.16
57250;BME280;43102;52.014;-0.680;2023-05-07T00:24:00;100474;;;14.22;82.16
57250;BME280;43102;52.014;-0.680;2023-05-07T00:25:00;100471;;;14.21;82.20
57250;BME280;43102;52.014;-0.680;2023-05-07T00:26:00;100471;;;14.21;82.20
57250;BME280;43102;52.014;-0.680;2023-05-07T00:27:00;100471;;;14.21;82.20
57250;BME280;43102;52.014;-0.680;2023-05-07T00:28:00;100471;;;14.21;82.20
57250;BME280;43102;52.014;-0.680;2023-05-07T00:29:00;100471;;;14.21;82.20
57250;BME280;43102;52.014;-0.680;2023-05-07T00:30:00;100469;;;14.22;82.67
57250;BME280;43102;52.014;-0.680;2023-05-07T00:31:00;100469;;;14.22;82.67
57250;BME280;43102;52.014;-0.680;2023-05-07T00:32:00;100469;;;14.22;82.67
57250;BME280;43102;52.014;-0.680;2023-05-07T00:33:00;100469;;;14.22;82.67
57250;BME280;43102;52.014;-0.680;2023-05-07T00:34:00;100469;;;14.22;82.67
57250;BME280;43102;52.014;-0.680;2023-05-07T00:35:00;100464;;;14.23;82.32
57250;BME280;43102;52.014;-0.680;2023-05-07T00:36:00;100464;;;14.23;82.32
57250;BME280;43102;52.014;-0.680;2023-05-07T00:37:00;100464;;;14.23;82.32
57250;BME280;43102;52.014;-0.680;2023-05-07T00:38:00;100464;;;14.23;82.32
57250;BME280;43102;52.014;-0.680;2023-05-07T00:39:00;100464;;;14.23;82.32
57250;BME280;43102;52.014;-0.680;2023-05-07T00:40:00;100468;;;14.24;82.49
57250;BME280;43102;52.014;-0.680;2023-05-07T00:41:00;100468;;;14.24;82.49
57250;BME280;43102;52.014;-0.680;2023-05-07T00:42:00;100468;;;14.24;82.49
57250;BME280;43102;52.014;-0.680;2023-05-07T00:43:00;100468;;;14.24;82.49
57250;BME280;43102;52.014;-0.680;2023-05-07T00:44:00;100468;;;14.24;82.49
57250;BME280;43102;52.014;-0.680;2023-05-07T00:45:00;100468;;;14.23;82.24
57250;BME280;43102;52.014;-0.680;2023-05-07T00:46:00;100468;;;14.23;82.24
57250;BME280;43102;52.014;-0.680;2023-05-07T00:47:01;100468;;;14.23;82.24
57250;BME280;43102;52.014;-0.680;2023-05-07T00:48:00;100468;;;14.23;82.24
57250;BME280;43102;52.014;-0.680;2023-05-07T00:49:00;100468;;;14.23;82.24
57250;BME280;43102;52.014;-0.680;2023-05-07T00:50:00;100475;;;14.22;82.30
57250;BME280;43102;52.014;-0.680;2023-05-07T00:51:00;100475;;;14.22;82.30
57250;BME280;43102;52.014;-0.680;2023-05-07T00:52:00;100475;;;14.22;82.30
57250;BME280;43102;52.014;-0.680;2023-05-07T00:53:00;100475;;;14.22;82.30
57250;BME280;43102;52.014;-0.680;2023-05-07T00:54:00;100475;;;14.22;82.30
57250;BME280;43102;52.014;-0.680;2023-05-07T00:55:02;100470;;;14.22;82.26
57250;BME280;43102;52.014;-0.680;2023-05-07T00:56:00;100470;;;14.22;82.26
57250;BME280;43102;52.014;-0.680;2023-05-07T00:57:01;100470;;;14.22;82.26
57250;BME280;43102;52.014;-0.680;2023-05-07T00:58:00;100470;;;14.22;82.26
57250;BME280;43102;52.014;-0.680;2023-05-07T00:59:01;100470;;;14.22;82.26
57250;BME280;43102;52.014;-0.680;2023-05-07T01:00:00;100472;;;14.20;82.86
57250;BME280;43102;52.014;-0.680;2023-05-07T01:01:00;100472;;;14.20;82.86
57250;BME280;43102;52.014;-0.680;2023-05-07T01:02:00;100472;;;14.20;82.86
57250;BME280;43102;52.014;-0.680;2023-05-07T01:03:00;100472;;;14.20;82.86
57250;BME280;43102;52.014;-0.680;2023-05-07T01:04:00;100472;;;14.20;82.86
57250;BME280;43102;52.014;-0.680;2023-05-07T01:05:00;100471;;;14.23;82.65
57250;BME280;43102;52.014;-0.680;2023-05-07T01:06:00;100471;;;14.23;82.65
57250;BME280;43102;52.014;-0.680;2023-05-07T01:07:00;100471;;;14.23;82.65
57250;BME280;43102;52.014;-0.680;2023-05-07T01:08:00;100471;;;14.23;82.65
57250;BME280;43102;52.014;-0.680;2023-05-07T01:09:00;100471;;;14.23;82.65
57250;BME280;43102;52.014;-0.680;2023-05-07T01:10:00;100468;;;14.21;82.47
57250;BME280;43102;52.014;-0.680;2023-05-07T01:11:01;100468;;;14.21;82.47
57250;BME280;43102;52.014;-0.680;2023-05-07T01:12:00;100468;;;14.21;82.47
57250;BME280;43102;52.014;-0.680;2023-05-07T01:13:00;100468;;;14.21;82.47
57250;BME280;43102;52.014;-0.680;2023-05-07T01:14:00;100468;;;14.21;82.47
57250;BME280;43102;52.014;-0.680;2023-05-07T01:15:00;100466;;;14.20;82.43
57250;BME280;43102;52.014;-0.680;2023-05-07T01:16:00;100466;;;14.20;82.43
57250;BME280;43102;52.014;-0.680;2023-05-07T01:17:00;100466;;;14.20;82.43
57250;BME280;43102;52.014;-0.680;2023-05-07T01:18:00;100466;;;14.20;82.43
57250;BME280;43102;52.014;-0.680;2023-05-07T01:19:00;100466;;;14.20;82.43
57250;BME280;43102;52.014;-0.680;2023-05-07T01:20:00;100467;;;14.15;82.44
57250;BME280;43102;52.014;-0.680;2023-05-07T01:21:00;100467;;;14.15;82.44
57250;BME280;43102;52.014;-0.680;2023-05-07T01:22:01;100467;;;14.15;82.44
57250;BME280;43102;52.014;-0.680;2023-05-07T01:23:00;100467;;;14.15;82.44
57250;BME280;43102;52.014;-0.680;2023-05-07T01:24:00;100467;;;14.15;82.44
57250;BME280;43102;52.014;-0.680;2023-05-07T01:25:00;100477;;;14.16;82.54
57250;BME280;43102;52.014;-0.680;2023-05-07T01:26:00;100477;;;14.16;82.54
57250;BME280;43102;52.014;-0.680;2023-05-07T01:27:00;100477;;;14.16;82.54
57250;BME280;43102;52.014;-0.680;2023-05-07T01:28:00;100477;;;14.16;82.54
57250;BME280;43102;52.014;-0.680;2023-05-07T01:29:00;100477;;;14.16;82.54
57250;BME280;43102;52.014;-0.680;2023-05-07T01:30:00;100473;;;14.12;82.98
57250;BME280;43102;52.014;-0.680;2023-05-07T01:31:00;100473;;;14.12;82.98
57250;BME280;43102;52.014;-0.680;2023-05-07T01:32:00;100473;;;14.12;82.98
57250;BME280;43102;52.014;-0.680;2023-05-07T01:33:02;100473;;;14.12;82.98
57250;BME280;43102;52.014;-0.680;2023-05-07T01:34:01;100473;;;14.12;82.98
57250;BME280;43102;52.014;-0.680;2023-05-07T01:35:00;100474;;;14.11;82.62
57250;BME280;43102;52.014;-0.680;2023-05-07T01:36:00;100474;;;14.11;82.62
57250;BME280;43102;52.014;-0.680;2023-05-07T01:37:00;100474;;;14.11;82.62
57250;BME280;43102;52.014;-0.680;2023-05-07T01:38:00;100474;;;14.11;82.62
57250;BME280;43102;52.014;-0.680;2023-05-07T01:39:00;100474;;;14.11;82.62
57250;BME280;43102;52.014;-0.680;2023-05-07T01:40:00;100479;;;14.10;82.70
57250;BME280;43102;52.014;-0.680;2023-05-07T01:41:00;100479;;;14.10;82.70
57250;BME280;43102;52.014;-0.680;2023-05-07T01:42:00;100479;;;14.10;82.70
57250;BME280;43102;52.014;-0.680;2023-05-07T01:43:00;100479;;;14.10;82.70
57250;BME280;43102;52.014;-0.680;2023-05-07T01:44:00;100479;;;14.10;82.70
57250;BME280;43102;52.014;-0.680;2023-05-07T01:45:00;100475;;;14.10;82.46
57250;BME280;43102;52.014;-0.680;2023-05-07T01:46:00;100475;;;14.10;82.46
57250;BME280;43102;52.014;-0.680;2023-05-07T01:47:00;100475;;;14.10;82.46
57250;BME280;43102;52.014;-0.680;2023-05-07T01:48:00;100475;;;14.10;82.46
57250;BME280;43102;52.014;-0.680;2023-05-07T01:49:00;100475;;;14.10;82.46
57250;BME280;43102;52.014;-0.680;2023-05-07T01:50:00;100480;;;14.09;82.71
57250;BME280;43102;52.014;-0.680;2023-05-07T01:51:00;100480;;;14.09;82.71
57250;BME280;43102;52.014;-0.680;2023-05-07T01:52:00;100480;;;14.09;82.71
57250;BME280;43102;52.014;-0.680;2023-05-07T01:53:00;100480;;;14.09;82.71
57250;BME280;43102;52.014;-0.680;2023-05-07T01:54:00;100480;;;14.09;82.71
57250;BME280;43102;52.014;-0.680;2023-05-07T01:55:00;100480;;;14.10;82.92
57250;BME280;43102;52.014;-0.680;2023-05-07T01:56:00;100480;;;14.10;82.92
57250;BME280;43102;52.014;-0.680;2023-05-07T01:57:00;100480;;;14.10;82.92
57250;BME280;43102;52.014;-0.680;2023-05-07T01:58:00;100480;;;14.10;82.92
57250;BME280;43102;52.014;-0.680;2023-05-07T01:59:00;100480;;;14.10;82.92
57250;BME280;43102;52.014;-0.680;2023-05-07T02:00:00;100482;;;14.11;83.18
57250;BME280;43102;52.014;-0.680;2023-05-07T02:01:00;100482;;;14.11;83.18
57250;BME280;43102;52.014;-0.680;2023-05-07T02:02:00;100482;;;14.11;83.18
57250;BME280;43102;52.014;-0.680;2023-05-07T02:03:00;100482;;;14.11;83.18
57250;BME280;43102;52.014;-0.680;2023-05-07T02:04:00;100482;;;14.11;83.18
57250;BME280;43102;52.014;-0.680;2023-05-07T02:05:00;100492;;;14.11;82.71
57250;BME280;43102;52.014;-0.680;2023-05-07T02:06:00;100492;;;14.11;82.71
57250;BME280;43102;52.014;-0.680;2023-05-07T02:07:00;100492;;;14.11;82.71
57250;BME280;43102;52.014;-0.680;2023-05-07T02:08:00;100492;;;14.11;82.71
57250;BME280;43102;52.014;-0.680;2023-05-07T02:09:00;100492;;;14.11;82.71
57250;BME280;43102;52.014;-0.680;2023-05-07T02:10:00;100489;;;14.11;82.79
57250;BME280;43102;52.014;-0.680;2023-05-07T02:11:00;100489;;;14.11;82.79
57250;BME280;43102;52.014;-0.680;2023-05-07T02:12:00;100489;;;14.11;82.79
57250;BME280;43102;52.014;-0.680;2023-05-07T02:13:00;100489;;;14.11;82.79
57250;BME280;43102;52.014;-0.680;2023-05-07T02:14:00;100489;;;14.11;82.79
57250;BME280;43102;52.014;-0.680;2023-05-07T02:15:00;100495;;;14.10;82.74
57250;BME280;43102;52.014;-0.680;2023-05-07T02:16:00;100495;;;14.10;82.74
57250;BME280;43102;52.014;-0.680;2023-05-07T02:17:00;100495;;;14.10;82.74
57250;BME280;43102;52.014;-0.680;2023-05-07T02:18:01;100495;;;14.10;82.74
57250;BME280;43102;52.014;-0.680;2023-05-07T02:19:00;100495;;;14.10;82.74
57250;BME280;43102;52.014;-0.680;2023-05-07T02:20:00;100500;;;14.10;82.74
57250;BME280;43102;52.014;-0.680;2023-05-07T02:21:00;100500;;;14.10;82.74
57250;BME280;43102;52.014;-0.680;2023-05-07T02:22:00;100500;;;14.10;82.74
57250;BME280;43102;52.014;-0.680;2023-05-07T02:23:00;100500;;;14.10;82.74
57250;BME280;43102;52.014;-0.680;2023-05-07T02:24:00;100500;;;14.10;82.74
57250;BME280;43102;52.014;-0.680;2023-05-07T02:25:00;100500;;;14.10;82.74
57250;BME280;43102;52.014;-0.680;2023-05-07T02:26:00;100500;;;14.10;82.74
57250;BME280;43102;52.014;-0.680;2023-05-07T02:27:00;100500;;;14.10;82.74
57250;BME280;43102;52.014;-0.680;2023-05-07T02:28:00;100500;;;14.10;82.74
57250;BME280;43102;52.014;-0.680;2023-05-07T02:29:00;100500;;;14.10;82.74
57250;BME280;43102;52.014;-0.680;2023-05-07T02:30:00;100501;;;14.06;83.34
57250;BME280;43102;52.014;-0.680;2023-05-07T02:31:02;100501;;;14.06;83.34
57250;BME280;43102;52.014;-0.680;2023-05-07T02:32:00;100501;;;14.06;83.34
57250;BME280;43102;52.014;-0.680;2023-05-07T02:33:00;100501;;;14.06;83.34
57250;BME280;43102;52.014;-0.680;2023-05-07T02:34:00;100501;;;14.06;83.34
57250;BME280;43102;52.014;-0.680;2023-05-07T02:35:00;100505;;;14.07;83.04
57250;BME280;43102;52.014;-0.680;2023-05-07T02:36:08;100505;;;14.07;83.04
57250;BME280;43102;52.014;-0.680;2023-05-07T02:37:00;100505;;;14.07;83.04
57250;BME280;43102;52.014;-0.680;2023-05-07T02:38:00;100505;;;14.07;83.04
57250;BME280;43102;52.014;-0.680;2023-05-07T02:39:00;100505;;;14.07;83.04
57250;BME280;43102;52.014;-0.680;2023-05-07T02:40:00;100508;;;14.10;83.06
57250;BME280;43102;52.014;-0.680;2023-05-07T02:41:00;100508;;;14.10;83.06
57250;BME280;43102;52.014;-0.680;2023-05-07T02:42:00;100508;;;14.10;83.06
57250;BME280;43102;52.014;-0.680;2023-05-07T02:43:00;100508;;;14.10;83.06
57250;BME280;43102;52.014;-0.680;2023-05-07T02:44:00;100508;;;14.10;83.06
57250;BME280;43102;52.014;-0.680;2023-05-07T02:45:00;100513;;;14.09;82.82
57250;BME280;43102;52.014;-0.680;2023-05-07T02:46:01;100513;;;14.09;82.82
57250;BME280;43102;52.014;-0.680;2023-05-07T02:47:00;100513;;;14.09;82.82
57250;BME280;43102;52.014;-0.680;2023-05-07T02:48:00;100513;;;14.09;82.82
57250;BME280;43102;52.014;-0.680;2023-05-07T02:49:00;100513;;;14.09;82.82
57250;BME280;43102;52.014;-0.680;2023-05-07T02:50:00;100516;;;14.09;82.78
57250;BME280;43102;52.014;-0.680;2023-05-07T02:51:00;100516;;;14.09;82.78
57250;BME280;43102;52.014;-0.680;2023-05-07T02:52:00;100516;;;14.09;82.78
57250;BME280;43102;52.014;-0.680;2023-05-07T02:53:00;100516;;;14.09;82.78
57250;BME280;43102;52.014;-0.680;2023-05-07T02:54:00;100516;;;14.09;82.78
57250;BME280;43102;52.014;-0.680;2023-05-07T02:55:00;100514;;;14.08;82.76
57250;BME280;43102;52.014;-0.680;2023-05-07T02:56:00;100514;;;14.08;82.76
57250;BME280;43102;52.014;-0.680;2023-05-07T02:57:00;100514;;;14.08;82.76
57250;BME280;43102;52.014;-0.680;2023-05-07T02:58:00;100514;;;14.08;82.76
57250;BME280;43102;52.014;-0.680;2023-05-07T02:59:00;100514;;;14.08;82.76
57250;BME280;43102;52.014;-0.680;2023-05-07T03:00:06;100515;;;14.04;83.55
57250;BME280;43102;52.014;-0.680;2023-05-07T03:01:00;100515;;;14.04;83.55
57250;BME280;43102;52.014;-0.680;2023-05-07T03:02:00;100515;;;14.04;83.55
57250;BME280;43102;52.014;-0.680;2023-05-07T03:03:00;100515;;;14.04;83.55
57250;BME280;43102;52.014;-0.680;2023-05-07T03:04:00;100515;;;14.04;83.55
57250;BME280;43102;52.014;-0.680;2023-05-07T03:05:00;100521;;;14.05;83.25
57250;BME280;43102;52.014;-0.680;2023-05-07T03:06:00;100521;;;14.05;83.25
57250;BME280;43102;52.014;-0.680;2023-05-07T03:07:00;100521;;;14.05;83.25
57250;BME280;43102;52.014;-0.680;2023-05-07T03:08:00;100521;;;14.05;83.25
57250;BME280;43102;52.014;-0.680;2023-05-07T03:09:00;100521;;;14.05;83.25
57250;BME280;43102;52.014;-0.680;2023-05-07T03:10:00;100519;;;14.06;83.32
57250;BME280;43102;52.014;-0.680;2023-05-07T03:11:00;100519;;;14.06;83.32
57250;BME280;43102;52.014;-0.680;2023-05-07T03:12:00;100519;;;14.06;83.32
57250;BME280;43102;52.014;-0.680;2023-05-07T03:13:00;100519;;;14.06;83.32
57250;BME280;43102;52.014;-0.680;2023-05-07T03:14:00;100519;;;14.06;83.32
57250;BME280;43102;52.014;-0.680;2023-05-07T03:15:00;100523;;;14.07;83.12
57250;BME280;43102;52.014;-0.680;2023-05-07T03:16:00;100523;;;14.07;83.12
57250;BME280;43102;52.014;-0.680;2023-05-07T03:17:00;100523;;;14.07;83.12
57250;BME280;43102;52.014;-0.680;2023-05-07T03:18:00;100523;;;14.07;83.12
57250;BME280;43102;52.014;-0.680;2023-05-07T03:19:00;100523;;;14.07;83.12
57250;BME280;43102;52.014;-0.680;2023-05-07T03:20:00;100534;;;14.06;83.51
57250;BME280;43102;52.014;-0.680;2023-05-07T03:21:00;100534;;;14.06;83.51
57250;BME280;43102;52.014;-0.680;2023-05-07T03:22:00;100534;;;14.06;83.51
57250;BME280;43102;52.014;-0.680;2023-05-07T03:23:00;100534;;;14.06;83.51
57250;BME280;43102;52.014;-0.680;2023-05-07T03:24:00;100534;;;14.06;83.51
57250;BME280;43102;52.014;-0.680;2023-05-07T03:25:00;100534;;;14.08;83.32
57250;BME280;43102;52.014;-0.680;2023-05-07T03:26:00;100534;;;14.08;83.32
57250;BME280;43102;52.014;-0.680;2023-05-07T03:27:00;100534;;;14.08;83.32
57250;BME280;43102;52.014;-0.680;2023-05-07T03:28:00;100534;;;14.08;83.32
57250;BME280;43102;52.014;-0.680;2023-05-07T03:29:00;100534;;;14.08;83.32
57250;BME280;43102;52.014;-0.680;2023-05-07T03:30:00;100535;;;14.06;83.72
57250;BME280;43102;52.014;-0.680;2023-05-07T03:31:00;100535;;;14.06;83.72
57250;BME280;43102;52.014;-0.680;2023-05-07T03:32:00;100535;;;14.06;83.72
57250;BME280;43102;52.014;-0.680;2023-05-07T03:33:00;100535;;;14.06;83.72
57250;BME280;43102;52.014;-0.680;2023-05-07T03:34:00;100535;;;14.06;83.72
57250;BME280;43102;52.014;-0.680;2023-05-07T03:35:00;100538;;;14.07;83.48
57250;BME280;43102;52.014;-0.680;2023-05-07T03:36:00;100538;;;14.07;83.48
57250;BME280;43102;52.014;-0.680;2023-05-07T03:37:00;100538;;;14.07;83.48
57250;BME280;43102;52.014;-0.680;2023-05-07T03:38:00;100538;;;14.07;83.48
57250;BME280;43102;52.014;-0.680;2023-05-07T03:39:00;100538;;;14.07;83.48
57250;BME280;43102;52.014;-0.680;2023-05-07T03:40:00;100545;;;14.07;83.31
57250;BME280;43102;52.014;-0.680;2023-05-07T03:41:00;100545;;;14.07;83.31
57250;BME280;43102;52.014;-0.680;2023-05-07T03:42:00;100545;;;14.07;83.31
57250;BME280;43102;52.014;-0.680;2023-05-07T03:43:00;100545;;;14.07;83.31
57250;BME280;43102;52.014;-0.680;2023-05-07T03:44:00;100545;;;14.07;83.31
57250;BME280;43102;52.014;-0.680;2023-05-07T03:45:00;100548;;;14.07;83.25
57250;BME280;43102;52.014;-0.680;2023-05-07T03:46:00;100548;;;14.07;83.25
57250;BME280;43102;52.014;-0.680;2023-05-07T03:47:00;100548;;;14.07;83.25
57250;BME280;43102;52.014;-0.680;2023-05-07T03:48:00;100548;;;14.07;83.25
57250;BME280;43102;52.014;-0.680;2023-05-07T03:49:00;100548;;;14.07;83.25
57250;BME280;43102;52.014;-0.680;2023-05-07T03:50:00;100546;;;14.06;83.31
57250;BME280;43102;52.014;-0.680;2023-05-07T03:51:00;100546;;;14.06;83.31
57250;BME280;43102;52.014;-0.680;2023-05-07T03:52:00;100546;;;14.06;83.31
57250;BME280;43102;52.014;-0.680;2023-05-07T03:53:00;100546;;;14.06;83.31
57250;BME280;43102;52.014;-0.680;2023-05-07T03:54:00;100546;;;14.06;83.31
57250;BME280;43102;52.014;-0.680;2023-05-07T03:55:00;100548;;;14.08;83.19
57250;BME280;43102;52.014;-0.680;2023-05-07T03:56:00;100548;;;14.08;83.19
57250;BME280;43102;52.014;-0.680;2023-05-07T03:57:00;100548;;;14.08;83.19
57250;BME280;43102;52.014;-0.680;2023-05-07T03:58:00;100548;;;14.08;83.19
57250;BME280;43102;52.014;-0.680;2023-05-07T03:59:00;100548;;;14.08;83.19
57250;BME280;43102;52.014;-0.680;2023-05-07T04:00:00;100556;;;14.08;83.72
57250;BME280;43102;52.014;-0.680;2023-05-07T04:01:00;100556;;;14.08;83.72
57250;BME280;43102;52.014;-0.680;2023-05-07T04:02:00;100556;;;14.08;83.72
57250;BME280;43102;52.014;-0.680;2023-05-07T04:03:00;100556;;;14.08;83.72
57250;BME280;43102;52.014;-0.680;2023-05-07T04:04:00;100556;;;14.08;83.72
57250;BME280;43102;52.014;-0.680;2023-05-07T04:05:00;100559;;;14.09;83.64
57250;BME280;43102;52.014;-0.680;2023-05-07T04:06:00;100559;;;14.09;83.64
57250;BME280;43102;52.014;-0.680;2023-05-07T04:07:00;100559;;;14.09;83.64
57250;BME280;43102;52.014;-0.680;2023-05-07T04:08:00;100559;;;14.09;83.64
57250;BME280;43102;52.014;-0.680;2023-05-07T04:09:00;100559;;;14.09;83.64
57250;BME280;43102;52.014;-0.680;2023-05-07T04:10:00;100557;;;14.10;83.45
57250;BME280;43102;52.014;-0.680;2023-05-07T04:11:01;100557;;;14.10;83.45
57250;BME280;43102;52.014;-0.680;2023-05-07T04:12:00;100557;;;14.10;83.45
57250;BME280;43102;52.014;-0.680;2023-05-07T04:13:00;100557;;;14.10;83.45
57250;BME280;43102;52.014;-0.680;2023-05-07T04:14:00;100557;;;14.10;83.45
57250;BME280;43102;52.014;-0.680;2023-05-07T04:15:00;100564;;;14.09;83.43
57250;BME280;43102;52.014;-0.680;2023-05-07T04:16:01;100564;;;14.09;83.43
57250;BME280;43102;52.014;-0.680;2023-05-07T04:17:00;100564;;;14.09;83.43
57250;BME280;43102;52.014;-0.680;2023-05-07T04:18:00;100564;;;14.09;83.43
57250;BME280;43102;52.014;-0.680;2023-05-07T04:19:00;100564;;;14.09;83.43
57250;BME280;43102;52.014;-0.680;2023-05-07T04:20:00;100569;;;14.09;83.34
57250;BME280;43102;52.014;-0.680;2023-05-07T04:21:00;100569;;;14.09;83.34
57250;BME280;43102;52.014;-0.680;2023-05-07T04:22:00;100569;;;14.09;83.34
57250;BME280;43102;52.014;-0.680;2023-05-07T04:23:00;100569;;;14.09;83.34
57250;BME280;43102;52.014;-0.680;2023-05-07T04:24:00;100569;;;14.09;83.34
57250;BME280;43102;52.014;-0.680;2023-05-07T04:25:00;100569;;;14.10;83.37
57250;BME280;43102;52.014;-0.680;2023-05-07T04:26:00;100569;;;14.10;83.37
57250;BME280;43102;52.014;-0.680;2023-05-07T04:27:00;100569;;;14.10;83.37
57250;BME280;43102;52.014;-0.680;2023-05-07T04:28:00;100569;;;14.10;83.37
57250;BME280;43102;52.014;-0.680;2023-05-07T04:29:00;100569;;;14.10;83.37
57250;BME280;43102;52.014;-0.680;2023-05-07T04:30:00;100574;;;14.10;83.90
57250;BME280;43102;52.014;-0.680;2023-05-07T04:31:00;100574;;;14.10;83.90
57250;BME280;43102;52.014;-0.680;2023-05-07T04:32:00;100574;;;14.10;83.90
57250;BME280;43102;52.014;-0.680;2023-05-07T04:33:00;100574;;;14.10;83.90
57250;BME280;43102;52.014;-0.680;2023-05-07T04:34:00;100574;;;14.10;83.90
57250;BME280;43102;52.014;-0.680;2023-05-07T04:35:00;100571;;;14.13;83.65
57250;BME280;43102;52.014;-0.680;2023-05-07T04:36:01;100571;;;14.13;83.65
57250;BME280;43102;52.014;-0.680;2023-05-07T04:37:00;100571;;;14.13;83.65
57250;BME280;43102;52.014;-0.680;2023-05-07T04:38:00;100571;;;14.13;83.65
57250;BME280;43102;52.014;-0.680;2023-05-07T04:39:00;100571;;;14.13;83.65
57250;BME280;43102;52.014;-0.680;2023-05-07T04:40:00;100572;;;14.14;83.64
57250;BME280;43102;52.014;-0.680;2023-05-07T04:41:03;100572;;;14.14;83.64
57250;BME280;43102;52.014;-0.680;2023-05-07T04:42:00;100572;;;14.14;83.64
57250;BME280;43102;52.014;-0.680;2023-05-07T04:43:00;100572;;;14.14;83.64
57250;BME280;43102;52.014;-0.680;2023-05-07T04:44:00;100572;;;14.14;83.64
57250;BME280;43102;52.014;-0.680;2023-05-07T04:45:00;100580;;;14.16;83.62
57250;BME280;43102;52.014;-0.680;2023-05-07T04:46:00;100580;;;14.16;83.62
57250;BME280;43102;52.014;-0.680;2023-05-07T04:47:00;100580;;;14.16;83.62
57250;BME280;43102;52.014;-0.680;2023-05-07T04:48:00;100580;;;14.16;83.62
57250;BME280;43102;52.014;-0.680;2023-05-07T04:49:00;100580;;;14.16;83.62
57250;BME280;43102;52.014;-0.680;2023-05-07T04:50:00;100582;;;14.18;83.67
57250;BME280;43102;52.014;-0.680;2023-05-07T04:51:00;100582;;;14.18;83.67
57250;BME280;43102;52.014;-0.680;2023-05-07T04:52:00;100582;;;14.18;83.67
57250;BME280;43102;52.014;-0.680;2023-05-07T04:53:00;100582;;;14.18;83.67
57250;BME280;43102;52.014;-0.680;2023-05-07T04:54:00;100582;;;14.18;83.67
57250;BME280;43102;52.014;-0.680;2023-05-07T04:55:00;100587;;;14.20;83.79
57250;BME280;43102;52.014;-0.680;2023-05-07T04:56:00;100587;;;14.20;83.79
57250;BME280;43102;52.014;-0.680;2023-05-07T04:57:00;100587;;;14.20;83.79
57250;BME280;43102;52.014;-0.680;2023-05-07T04:58:00;100587;;;14.20;83.79
57250;BME280;43102;52.014;-0.680;2023-05-07T04:59:00;100587;;;14.20;83.79
57250;BME280;43102;52.014;-0.680;2023-05-07T05:00:00;100593;;;14.19;84.19
57250;BME280;43102;52.014;-0.680;2023-05-07T05:01:00;100593;;;14.19;84.19
57250;BME280;43102;52.014;-0.680;2023-05-07T05:02:00;100593;;;14.19;84.19
57250;BME280;43102;52.014;-0.680;2023-05-07T05:03:00;100593;;;14.19;84.19
57250;BME280;43102;52.014;-0.680;2023-05-07T05:04:00;100593;;;14.19;84.19
57250;BME280;43102;52.014;-0.680;2023-05-07T05:05:00;100587;;;14.21;83.87
57250;BME280;43102;52.014;-0.680;2023-05-07T05:06:00;100587;;;14.21;83.87
57250;BME280;43102;52.014;-0.680;2023-05-07T05:07:00;100587;;;14.21;83.87
57250;BME280;43102;52.014;-0.680;2023-05-07T05:08:00;100587;;;14.21;83.87
57250;BME280;43102;52.014;-0.680;2023-05-07T05:09:00;100587;;;14.21;83.87
57250;BME280;43102;52.014;-0.680;2023-05-07T05:10:01;100584;;;14.22;83.88
57250;BME280;43102;52.014;-0.680;2023-05-07T05:11:00;100584;;;14.22;83.88
57250;BME280;43102;52.014;-0.680;2023-05-07T05:12:00;100584;;;14.22;83.88
57250;BME280;43102;52.014;-0.680;2023-05-07T05:13:00;100584;;;14.22;83.88
57250;BME280;43102;52.014;-0.680;2023-05-07T05:14:00;100584;;;14.22;83.88
57250;BME280;43102;52.014;-0.680;2023-05-07T05:15:00;100584;;;14.21;83.78
57250;BME280;43102;52.014;-0.680;2023-05-07T05:16:00;100584;;;14.21;83.78
57250;BME280;43102;52.014;-0.680;2023-05-07T05:17:00;100584;;;14.21;83.78
57250;BME280;43102;52.014;-0.680;2023-05-07T05:18:00;100584;;;14.21;83.78
57250;BME280;43102;52.014;-0.680;2023-05-07T05:19:01;100584;;;14.21;83.78
57250;BME280;43102;52.014;-0.680;2023-05-07T05:20:00;100596;;;14.23;83.58
57250;BME280;43102;52.014;-0.680;2023-05-07T05:21:00;100596;;;14.23;83.58